createdAt,value
2023-02-06T00:02:06.316Z,89.50
2023-02-06T00:04:38.876Z,89.21
2023-02-06T00:07:11.429Z,89.35
2023-02-06T00:09:43.894Z,89.89
2023-02-06T00:12:16.493Z,89.80
2023-02-06T00:14:48.967Z,89.65
2023-02-06T00:17:21.508Z,89.57
2023-02-06T00:19:53.974Z,89.74
2023-02-06T00:22:26.507Z,90.05
2023-02-06T00:24:59.328Z,89.73
2023-02-06T00:27:32.119Z,89.80
2023-02-06T00:30:05.317Z,89.80
2023-02-06T00:32:38.183Z,90.40
2023-02-06T00:35:10.716Z,90.24
2023-02-06T00:37:43.163Z,90.37
2023-02-06T00:40:15.762Z,89.98
2023-02-06T00:42:48.318Z,88.99
2023-02-06T00:45:20.936Z,89.13
2023-02-06T00:47:53.477Z,89.04
2023-02-06T00:50:26.047Z,88.60
2023-02-06T00:52:58.549Z,88.35
2023-02-06T00:55:31.040Z,88.31
2023-02-06T00:58:03.567Z,88.46
2023-02-06T01:00:36.203Z,88.12
2023-02-06T01:03:08.955Z,88.63
2023-02-06T01:05:41.475Z,88.92
2023-02-06T01:08:14.524Z,90.41
2023-02-06T01:10:47.039Z,89.88
2023-02-06T01:13:19.776Z,89.45
2023-02-06T01:15:52.527Z,89.19
2023-02-06T01:18:25.095Z,89.10
2023-02-06T01:20:57.559Z,88.63
2023-02-06T01:23:30.044Z,89.18
2023-02-06T01:26:10.184Z,89.05
2023-02-06T01:28:45.692Z,89.13
2023-02-06T01:31:26.631Z,89.32
2023-02-06T01:34:00.612Z,89.30
2023-02-06T01:36:33.134Z,88.36
2023-02-06T01:39:07.774Z,88.98
2023-02-06T01:41:40.341Z,89.43
2023-02-06T01:44:23.568Z,89.63
2023-02-06T01:46:58.339Z,90.45
2023-02-06T01:49:36.061Z,92.32
2023-02-06T01:52:26.803Z,92.98
2023-02-06T01:55:04.675Z,93.47
2023-02-06T01:57:39.097Z,92.60
2023-02-06T02:00:12.512Z,93.18
2023-02-06T02:02:49.063Z,92.94
2023-02-06T02:05:21.760Z,92.59
2023-02-06T02:08:02.076Z,92.48
2023-02-06T02:10:35.129Z,92.44
2023-02-06T02:13:07.732Z,92.84
2023-02-06T02:16:23.096Z,92.70
2023-02-06T02:19:51.894Z,92.42
2023-02-06T02:22:36.014Z,92.40
2023-02-06T02:25:42.337Z,92.62
2023-02-06T02:28:55.266Z,91.34
2023-02-06T02:32:43.899Z,91.67
2023-02-06T02:35:36.137Z,91.27
2023-02-06T02:38:50.272Z,91.26
2023-02-06T02:41:53.887Z,90.87
2023-02-06T02:44:43.608Z,90.71
2023-02-06T02:47:21.411Z,90.42
2023-02-06T02:49:54.841Z,90.41
2023-02-06T02:52:28.964Z,90.80
2023-02-06T02:55:01.447Z,91.16
2023-02-06T02:57:34.129Z,90.69
2023-02-06T03:00:08.635Z,90.79
2023-02-06T03:02:42.910Z,90.48
2023-02-06T03:05:20.746Z,90.82
2023-02-06T03:08:26.659Z,90.10
2023-02-06T03:11:12.879Z,90.13
2023-02-06T03:14:05.936Z,90.67
2023-02-06T03:16:47.769Z,90.54
2023-02-06T03:19:32.125Z,89.78
2023-02-06T03:22:05.659Z,89.95
2023-02-06T03:24:39.754Z,89.42
2023-02-06T03:27:17.433Z,89.63
2023-02-06T03:29:54.236Z,89.63
2023-02-06T03:32:34.156Z,89.18
2023-02-06T03:35:30.935Z,89.53
2023-02-06T03:38:07.625Z,89.58
2023-02-06T03:40:47.300Z,89.89
2023-02-06T03:43:24.680Z,89.86
2023-02-06T03:46:04.494Z,89.70
2023-02-06T03:48:44.292Z,89.42
2023-02-06T03:51:27.768Z,89.08
2023-02-06T03:54:05.480Z,89.30
2023-02-06T03:56:52.573Z,88.90
2023-02-06T03:59:25.312Z,89.29
2023-02-06T04:02:03.424Z,89.24
2023-02-06T04:04:42.343Z,89.89
2023-02-06T04:07:25.351Z,89.25
2023-02-06T04:09:57.880Z,88.96
2023-02-06T04:12:30.471Z,89.23
2023-02-06T04:15:03.290Z,89.05
2023-02-06T04:17:53.597Z,88.89
2023-02-06T04:20:30.203Z,89.66
2023-02-06T04:23:02.680Z,90.19
2023-02-06T04:25:35.837Z,89.98
2023-02-06T04:28:08.777Z,89.42
2023-02-06T04:30:41.523Z,89.54
2023-02-06T04:33:14.068Z,89.36
2023-02-06T04:35:48.848Z,89.25
2023-02-06T04:38:21.420Z,89.54
2023-02-06T04:40:54.018Z,89.47
2023-02-06T04:43:26.623Z,89.23
2023-02-06T04:45:59.374Z,88.96
2023-02-06T04:48:31.875Z,89.49
2023-02-06T04:51:04.956Z,89.87
2023-02-06T04:53:37.501Z,90.30
2023-02-06T04:56:12.797Z,90.55
2023-02-06T04:58:45.316Z,90.31
2023-02-06T05:01:18.178Z,90.89
2023-02-06T05:03:50.952Z,90.72
2023-02-06T05:06:23.601Z,89.63
2023-02-06T05:08:56.194Z,90.33
2023-02-06T05:11:28.719Z,90.30
2023-02-06T05:14:01.220Z,89.85
2023-02-06T05:16:33.744Z,89.92
2023-02-06T05:19:06.323Z,89.51
2023-02-06T05:21:38.960Z,89.80
2023-02-06T05:24:11.975Z,90.41
2023-02-06T05:26:46.456Z,89.97
2023-02-06T05:29:18.995Z,89.95
2023-02-06T05:31:52.109Z,89.90
2023-02-06T05:34:24.794Z,90.06
2023-02-06T05:36:57.419Z,90.07
2023-02-06T05:39:29.955Z,90.00
2023-02-06T05:42:02.559Z,89.89
2023-02-06T05:44:35.103Z,89.67
2023-02-06T05:47:07.663Z,90.04
2023-02-06T05:49:40.194Z,89.81
2023-02-06T05:52:12.704Z,89.62
2023-02-06T05:54:45.187Z,90.26
2023-02-06T05:57:17.699Z,90.34
2023-02-06T05:59:50.196Z,90.40
2023-02-06T06:02:22.824Z,90.23
2023-02-06T06:04:55.358Z,90.10
2023-02-06T06:07:27.843Z,89.56
2023-02-06T06:10:00.399Z,90.40
2023-02-06T06:12:33.050Z,90.75
2023-02-06T06:15:06.336Z,90.43
2023-02-06T06:17:38.974Z,91.57
2023-02-06T06:20:11.870Z,90.88
2023-02-06T06:22:44.393Z,90.92
2023-02-06T06:25:17.053Z,90.69
2023-02-06T06:27:49.663Z,90.70
2023-02-06T06:30:22.211Z,91.03
2023-02-06T06:32:54.768Z,90.68
2023-02-06T06:35:27.366Z,91.12
2023-02-06T06:38:00.000Z,91.43
2023-02-06T06:40:32.459Z,91.42
2023-02-06T06:43:04.933Z,91.44
2023-02-06T06:45:37.769Z,90.67
2023-02-06T06:48:10.504Z,91.19
2023-02-06T06:50:43.224Z,91.14
2023-02-06T06:53:16.436Z,91.25
2023-02-06T06:55:49.057Z,91.12
2023-02-06T06:58:21.646Z,91.45
2023-02-06T07:00:54.179Z,91.36
2023-02-06T07:03:26.758Z,91.46
2023-02-06T07:05:59.265Z,90.74
2023-02-06T07:08:32.223Z,90.49
2023-02-06T07:11:04.949Z,90.83
2023-02-06T07:13:37.923Z,91.08
2023-02-06T07:16:12.114Z,91.62
2023-02-06T07:18:44.693Z,92.02
2023-02-06T07:21:19.716Z,92.04
2023-02-06T07:23:52.233Z,91.56
2023-02-06T07:26:24.711Z,92.21
2023-02-06T07:28:57.263Z,92.17
2023-02-06T07:31:29.808Z,91.83
2023-02-06T07:34:02.405Z,92.14
2023-02-06T07:36:35.626Z,92.00
2023-02-06T07:39:08.522Z,91.66
2023-02-06T07:41:41.346Z,92.15
2023-02-06T07:44:14.640Z,91.77
2023-02-06T07:46:47.741Z,92.15
2023-02-06T07:49:20.387Z,91.99
2023-02-06T07:51:52.972Z,91.80
2023-02-06T07:54:25.468Z,92.15
2023-02-06T07:56:58.083Z,92.19
2023-02-06T07:59:30.595Z,92.45
2023-02-06T08:02:03.205Z,91.85
2023-02-06T08:04:36.068Z,91.95
2023-02-06T08:07:11.158Z,91.50
2023-02-06T08:09:44.009Z,92.22
2023-02-06T08:12:16.572Z,92.28
2023-02-06T08:14:49.184Z,92.45
2023-02-06T08:17:21.918Z,92.64
2023-02-06T08:19:54.518Z,92.16
2023-02-06T08:22:29.532Z,91.63
2023-02-06T08:25:02.018Z,90.87
2023-02-06T08:27:34.589Z,91.88
2023-02-06T08:30:08.210Z,91.53
2023-02-06T08:32:40.719Z,90.53
2023-02-06T08:35:13.392Z,90.15
2023-02-06T08:37:45.887Z,90.48
2023-02-06T08:40:18.888Z,90.67
2023-02-06T08:42:52.022Z,90.00
2023-02-06T08:45:24.533Z,90.13
2023-02-06T08:47:57.081Z,89.14
2023-02-06T08:50:29.590Z,89.82
2023-02-06T08:53:03.068Z,89.20
2023-02-06T08:55:35.777Z,88.63
2023-02-06T08:58:08.363Z,89.36
2023-02-06T09:00:40.914Z,89.57
2023-02-06T09:03:14.041Z,89.74
2023-02-06T09:05:46.817Z,89.80
2023-02-06T09:08:19.369Z,89.69
2023-02-06T09:10:51.894Z,89.01
2023-02-06T09:13:25.723Z,88.55
2023-02-06T09:15:58.536Z,88.49
2023-02-06T09:18:31.384Z,88.46
2023-02-06T09:21:17.693Z,87.89
2023-02-06T09:23:59.867Z,87.44
2023-02-06T09:26:53.454Z,87.06
2023-02-06T09:29:31.857Z,86.72
2023-02-06T09:32:04.874Z,86.86
2023-02-06T09:34:37.363Z,86.77
2023-02-06T09:37:09.847Z,86.92
2023-02-06T09:39:42.340Z,88.33
2023-02-06T09:42:30.143Z,88.35
2023-02-06T09:45:19.392Z,87.50
2023-02-06T09:48:20.377Z,87.02
2023-02-06T09:51:16.585Z,87.12
2023-02-06T09:54:45.778Z,86.38
2023-02-06T09:57:46.248Z,86.78
2023-02-06T10:00:50.328Z,86.18
2023-02-06T10:04:00.625Z,85.89
2023-02-06T10:06:45.203Z,85.93
2023-02-06T10:09:29.403Z,87.09
2023-02-06T10:12:13.528Z,85.82
2023-02-06T10:14:58.897Z,85.38
2023-02-06T10:17:41.859Z,84.85
2023-02-06T10:20:39.540Z,84.07
2023-02-06T10:23:27.022Z,83.96
2023-02-06T10:26:18.099Z,82.84
2023-02-06T10:28:56.941Z,81.97
2023-02-06T10:32:00.306Z,82.56
2023-02-06T10:35:01.073Z,81.91
2023-02-06T10:37:51.499Z,80.93
2023-02-06T10:40:38.011Z,81.28
2023-02-06T10:43:40.387Z,81.97
2023-02-06T10:46:35.683Z,81.42
2023-02-06T10:49:21.893Z,82.00
2023-02-06T10:52:01.072Z,81.88
2023-02-06T10:54:42.832Z,82.41
2023-02-06T10:57:22.004Z,83.07
2023-02-06T11:00:00.630Z,82.76
2023-02-06T11:03:06.636Z,83.14
2023-02-06T11:05:41.451Z,82.30
2023-02-06T11:08:27.108Z,82.31
2023-02-06T11:11:24.225Z,82.15
2023-02-06T11:14:07.644Z,81.72
2023-02-06T11:16:41.788Z,81.02
2023-02-06T11:19:40.383Z,80.08
2023-02-06T11:22:16.716Z,78.77
2023-02-06T11:25:25.781Z,78.25
2023-02-06T11:28:01.305Z,77.84
2023-02-06T11:30:41.039Z,77.33
2023-02-06T11:33:45.764Z,74.62
2023-02-06T11:36:29.492Z,74.00
2023-02-06T11:39:22.083Z,73.44
2023-02-06T11:42:01.055Z,72.71
2023-02-06T11:44:43.479Z,72.47
2023-02-06T11:47:37.686Z,71.37
2023-02-06T11:50:13.361Z,73.08
2023-02-06T11:52:47.238Z,72.52
2023-02-06T11:55:34.507Z,71.92
2023-02-06T11:58:13.145Z,71.93
2023-02-06T12:00:51.683Z,71.08
2023-02-06T12:03:30.924Z,71.09
2023-02-06T12:06:21.803Z,71.04
2023-02-06T12:09:02.614Z,72.08
2023-02-06T12:12:11.255Z,71.65
2023-02-06T12:14:52.790Z,71.24
2023-02-06T12:17:38.719Z,70.41
2023-02-06T12:20:26.884Z,69.72
2023-02-06T12:23:15.333Z,69.36
2023-02-06T12:25:55.324Z,69.28
2023-02-06T12:28:40.792Z,68.32
2023-02-06T12:31:22.035Z,67.00
2023-02-06T12:34:20.116Z,67.82
2023-02-06T12:37:21.727Z,68.71
2023-02-06T12:39:54.476Z,67.01
2023-02-06T12:42:43.689Z,66.99
2023-02-06T12:45:34.950Z,67.27
2023-02-06T12:48:30.013Z,68.23
2023-02-06T12:51:23.002Z,69.02
2023-02-06T12:54:03.872Z,67.54
2023-02-06T12:56:57.278Z,67.50
2023-02-06T13:00:02.668Z,65.49
2023-02-06T13:03:41.294Z,64.97
2023-02-06T13:06:21.378Z,64.41
2023-02-06T13:09:06.337Z,64.20
2023-02-06T13:11:40.862Z,63.08
2023-02-06T13:14:27.129Z,63.64
2023-02-06T13:17:11.687Z,62.58
2023-02-06T13:19:44.566Z,63.62
2023-02-06T13:22:18.918Z,63.83
2023-02-06T13:24:51.986Z,65.09
2023-02-06T13:27:37.627Z,64.26
2023-02-06T13:30:23.757Z,64.44
2023-02-06T13:33:24.617Z,63.09
2023-02-06T13:36:15.917Z,62.36
2023-02-06T13:38:48.504Z,63.55
2023-02-06T13:41:37.112Z,62.42
2023-02-06T13:44:27.903Z,62.71
2023-02-06T13:47:46.230Z,62.90
2023-02-06T13:50:21.428Z,63.64
2023-02-06T13:53:29.349Z,65.08
2023-02-06T13:56:26.756Z,65.71
2023-02-06T13:59:05.971Z,65.82
2023-02-06T14:01:40.149Z,65.89
2023-02-06T14:04:25.157Z,65.47
2023-02-06T14:07:39.455Z,64.51
2023-02-06T14:10:45.544Z,63.95
2023-02-06T14:13:39.200Z,63.18
2023-02-06T14:16:33.821Z,63.03
2023-02-06T14:19:11.815Z,63.11
2023-02-06T14:22:04.437Z,63.04
2023-02-06T14:25:31.320Z,63.25
2023-02-06T14:28:16.079Z,63.30
2023-02-06T14:31:23.254Z,63.87
2023-02-06T14:34:23.527Z,64.35
2023-02-06T14:37:42.792Z,65.07
2023-02-06T14:40:29.403Z,65.01
2023-02-06T14:43:13.414Z,66.34
2023-02-06T14:46:06.010Z,66.35
2023-02-06T14:48:52.699Z,66.59
2023-02-06T14:51:39.008Z,66.58
2023-02-06T14:54:29.137Z,66.56
2023-02-06T14:57:05.903Z,65.87
2023-02-06T14:59:38.388Z,66.28
2023-02-06T15:02:26.292Z,66.82
2023-02-06T15:05:02.107Z,66.18
2023-02-06T15:07:38.630Z,66.49
2023-02-06T15:10:18.217Z,66.71
2023-02-06T15:12:53.545Z,66.86
2023-02-06T15:15:29.911Z,67.31
2023-02-06T15:18:06.477Z,66.57
2023-02-06T15:20:44.113Z,67.09
2023-02-06T15:23:59.503Z,67.01
2023-02-06T15:26:53.180Z,67.11
2023-02-06T15:29:27.030Z,66.95
2023-02-06T15:32:25.160Z,66.91
2023-02-06T15:34:59.539Z,66.78
2023-02-06T15:37:35.697Z,67.40
2023-02-06T15:40:42.209Z,67.42
2023-02-06T15:43:22.154Z,67.33
2023-02-06T15:45:58.904Z,67.78
2023-02-06T15:48:43.600Z,67.35
2023-02-06T15:51:29.989Z,68.35
2023-02-06T15:54:22.564Z,68.10
2023-02-06T15:57:20.826Z,68.79
2023-02-06T15:59:56.621Z,69.14
2023-02-06T16:02:39.600Z,69.50
2023-02-06T16:05:42.230Z,69.51
2023-02-06T16:08:27.498Z,69.67
2023-02-06T16:11:27.616Z,69.86
2023-02-06T16:14:01.924Z,70.38
2023-02-06T16:16:34.472Z,70.21
2023-02-06T16:19:29.734Z,70.66
2023-02-06T16:22:19.695Z,71.53
2023-02-06T16:25:11.448Z,71.54
2023-02-06T16:27:46.147Z,72.07
2023-02-06T16:30:33.467Z,72.22
2023-02-06T16:33:25.382Z,71.90
2023-02-06T16:35:57.928Z,72.33
2023-02-06T16:38:30.551Z,72.76
2023-02-06T16:41:03.319Z,73.03
2023-02-06T16:43:35.944Z,72.85
2023-02-06T16:46:08.553Z,73.31
2023-02-06T16:48:41.186Z,73.20
2023-02-06T16:51:21.193Z,72.61
2023-02-06T16:53:54.010Z,72.79
2023-02-06T16:56:26.748Z,72.41
2023-02-06T16:58:59.215Z,72.52
2023-02-06T17:01:32.371Z,72.53
2023-02-06T17:04:05.112Z,73.13
2023-02-06T17:06:38.177Z,72.80
2023-02-06T17:09:16.233Z,73.35
2023-02-06T17:11:48.732Z,74.04
2023-02-06T17:14:21.332Z,74.06
2023-02-06T17:16:55.689Z,74.55
2023-02-06T17:19:28.272Z,74.80
2023-02-06T17:22:00.839Z,74.86
2023-02-06T17:27:30.738Z,75.26
2023-02-06T17:30:03.650Z,75.55
2023-02-06T17:32:36.281Z,76.49
2023-02-06T17:35:09.341Z,77.06
2023-02-06T17:37:41.926Z,77.05
2023-02-06T17:40:24.172Z,77.29
2023-02-06T17:42:59.085Z,77.88
2023-02-06T17:45:32.007Z,77.84
2023-02-06T17:48:05.882Z,78.34
2023-02-06T17:50:41.221Z,77.92
2023-02-06T17:53:14.708Z,78.00
2023-02-06T17:55:47.552Z,78.46
2023-02-06T17:58:20.619Z,78.42
2023-02-06T18:00:53.075Z,78.15
2023-02-06T18:03:25.830Z,78.52
2023-02-06T18:06:02.497Z,78.58
2023-02-06T18:08:35.347Z,78.59
2023-02-06T18:11:18.167Z,78.71
2023-02-06T18:13:50.948Z,78.96
2023-02-06T18:16:28.548Z,79.37
2023-02-06T18:19:01.181Z,80.08
2023-02-06T18:21:33.743Z,80.49
2023-02-06T18:24:07.354Z,80.87
2023-02-06T18:26:39.848Z,81.21
2023-02-06T18:29:12.881Z,81.62
2023-02-06T18:31:45.759Z,81.45
2023-02-06T18:34:20.481Z,81.99
2023-02-06T18:36:53.151Z,81.91
2023-02-06T18:39:25.786Z,82.30
2023-02-06T18:42:16.909Z,82.52
2023-02-06T18:44:49.495Z,83.57
2023-02-06T18:47:22.089Z,83.54
2023-02-06T18:49:54.735Z,83.76
2023-02-06T18:52:27.318Z,83.76
2023-02-06T18:54:59.964Z,83.60
2023-02-06T18:57:32.462Z,83.79
2023-02-06T19:00:07.167Z,84.09
2023-02-06T19:02:40.199Z,84.17
2023-02-06T19:05:13.598Z,84.44
2023-02-06T19:07:53.538Z,84.30
2023-02-06T19:10:26.091Z,84.58
2023-02-06T19:12:58.596Z,84.84
2023-02-06T19:15:34.217Z,84.30
2023-02-06T19:18:07.762Z,84.79
2023-02-06T19:20:41.881Z,84.74
2023-02-06T19:23:14.359Z,85.09
2023-02-06T19:25:46.843Z,84.75
2023-02-06T19:28:19.359Z,85.31
2023-02-06T19:30:52.061Z,85.32
2023-02-06T19:33:24.618Z,85.26
2023-02-06T19:35:57.138Z,85.43
2023-02-06T19:38:29.654Z,85.61
2023-02-06T19:41:12.998Z,86.11
2023-02-06T19:43:46.137Z,86.76
2023-02-06T19:46:23.188Z,86.25
2023-02-06T19:48:56.331Z,86.18
2023-02-06T19:51:35.588Z,86.82
2023-02-06T19:54:08.570Z,86.45
2023-02-06T19:56:47.544Z,86.66
2023-02-06T19:59:24.805Z,86.43
2023-02-06T20:02:01.595Z,86.31
2023-02-06T20:04:36.277Z,86.52
2023-02-06T20:07:09.124Z,86.61
2023-02-06T20:09:42.634Z,86.79
2023-02-06T20:12:15.262Z,86.38
2023-02-06T20:14:47.899Z,86.87
2023-02-06T20:17:20.588Z,87.12
2023-02-06T20:19:53.819Z,87.47
2023-02-06T20:22:26.761Z,86.76
2023-02-06T20:24:59.496Z,87.05
2023-02-06T20:27:32.163Z,87.40
2023-02-06T20:30:05.464Z,86.78
2023-02-06T20:32:38.158Z,87.81
2023-02-06T20:35:10.997Z,87.42
2023-02-06T20:37:43.882Z,87.49
2023-02-06T20:40:16.687Z,86.88
2023-02-06T20:42:49.429Z,87.43
2023-02-06T20:45:21.990Z,86.82
2023-02-06T20:47:54.593Z,86.79
2023-02-06T20:50:29.597Z,86.96
2023-02-06T20:53:02.685Z,86.93
2023-02-06T20:55:38.994Z,87.42
2023-02-06T20:58:11.696Z,87.38
2023-02-06T21:00:44.383Z,87.36
2023-02-06T21:03:17.529Z,87.13
2023-02-06T21:05:59.148Z,87.37
2023-02-06T21:08:31.762Z,87.19
2023-02-06T21:11:04.974Z,87.97
2023-02-06T21:13:40.679Z,88.11
2023-02-06T21:16:13.755Z,87.64
2023-02-06T21:18:46.322Z,87.32
2023-02-06T21:21:19.823Z,87.66
2023-02-06T21:23:55.856Z,87.77
2023-02-06T21:26:29.886Z,87.67
2023-02-06T21:29:04.120Z,87.80
2023-02-06T21:31:38.788Z,88.02
2023-02-06T21:34:19.135Z,88.15
2023-02-06T21:36:53.281Z,87.98
2023-02-06T21:39:27.168Z,87.86
2023-02-06T21:42:01.557Z,88.51
2023-02-06T21:44:34.460Z,88.43
2023-02-06T21:47:09.721Z,88.44
2023-02-06T21:49:42.310Z,88.26
2023-02-06T21:52:14.874Z,88.15
2023-02-06T21:54:47.514Z,88.61
2023-02-06T21:57:20.131Z,88.48
2023-02-06T21:59:52.760Z,87.67
2023-02-06T22:02:25.342Z,88.28
2023-02-06T22:04:59.632Z,88.54
2023-02-06T22:07:38.001Z,88.62
2023-02-06T22:10:11.091Z,87.76
2023-02-06T22:12:48.780Z,87.63
2023-02-06T22:15:21.677Z,87.97
2023-02-06T22:17:54.298Z,88.39
2023-02-06T22:20:27.334Z,88.55
2023-02-06T22:22:59.951Z,88.44
2023-02-06T22:25:32.522Z,88.32
2023-02-06T22:28:05.111Z,88.73
2023-02-06T22:30:39.465Z,88.39
2023-02-06T22:33:13.389Z,88.06
2023-02-06T22:35:46.001Z,88.50
2023-02-06T22:38:18.554Z,88.18
2023-02-06T22:41:03.522Z,87.57
2023-02-06T22:43:38.624Z,88.15
2023-02-06T22:46:30.601Z,88.51
2023-02-06T22:49:06.900Z,88.80
2023-02-06T22:51:41.313Z,88.40
2023-02-06T22:54:14.557Z,88.98
2023-02-06T22:56:47.326Z,88.25
2023-02-06T22:59:25.441Z,88.32
2023-02-06T23:01:59.132Z,88.81
2023-02-06T23:04:36.225Z,88.79
2023-02-06T23:07:08.844Z,89.06
2023-02-06T23:09:41.619Z,88.68
2023-02-06T23:12:16.141Z,88.86
2023-02-06T23:14:48.714Z,89.09
2023-02-06T23:17:21.403Z,89.02
2023-02-06T23:19:54.144Z,89.17
2023-02-06T23:22:26.740Z,89.16
2023-02-06T23:24:59.324Z,88.95
2023-02-06T23:27:31.926Z,88.83
2023-02-06T23:30:05.777Z,88.68
2023-02-06T23:32:38.293Z,88.46
2023-02-06T23:35:11.272Z,88.25
2023-02-06T23:37:44.070Z,88.63
2023-02-06T23:40:18.049Z,89.04
2023-02-06T23:42:50.573Z,89.24
2023-02-06T23:45:23.340Z,89.26
2023-02-06T23:47:56.429Z,88.80
2023-02-06T23:50:29.249Z,88.99
2023-02-06T23:53:01.807Z,88.54
2023-02-06T23:55:34.420Z,88.39
2023-02-06T23:58:07.012Z,88.96
